Time;durP1;ratioP1;P1;durP2;ratioP2;P2;SDS_P1;SDS_P2;PMS_P1;PMS_P2;Temp;Humidity;BMP_temperature;BMP_pressure;BME280_temperature;BME280_humidity;BME280_pressure;Samples;Min_cycle;Max_cycle;Signal;HPM_P1;HPM_P2
2022/08/04 00:02:26;;;;;;;1.15;0.60;;;;;;;;;;10523288;28;20236;-70
2022/08/04 00:07:35;;;;;;;0.60;0.60;;;;;;;;;;10532886;28;20205;-70
2022/08/04 00:12:38;;;;;;;0.60;0.60;;;;;;;;;;10532523;28;20226;-70
2022/08/04 00:17:45;;;;;;;0.63;0.63;;;;;;;;;;10527659;28;20288;-70
2022/08/04 00:22:47;;;;;;;0.80;0.60;;;;;;;;;;10535184;28;20229;-70
2022/08/04 00:27:49;;;;;;;0.60;0.60;;;;;;;;;;10536478;28;20655;-70
2022/08/04 00:32:54;;;;;;;0.70;0.70;;;;;;;;;;10505525;28;20288;-71
2022/08/04 00:37:55;;;;;;;0.70;0.68;;;;;;;;;;10528530;28;20656;-71
2022/08/04 00:43:03;;;;;;;0.63;0.60;;;;;;;;;;10530075;28;20299;-71
2022/08/04 00:48:16;;;;;;;0.70;0.70;;;;;;;;;;10524420;28;20202;-71
2022/08/04 00:53:31;;;;;;;0.65;0.65;;;;;;;;;;10537941;28;20209;-71
2022/08/04 00:59:01;;;;;;;0.80;0.80;;;;;;;;;;10536770;28;20195;-71
2022/08/04 01:04:12;;;;;;;0.73;0.60;;;;;;;;;;10464976;28;20225;-71
2022/08/04 01:09:21;;;;;;;0.93;0.80;;;;;;;;;;10534257;28;20232;-71
2022/08/04 01:14:42;;;;;;;1.00;1.00;;;;;;;;;;10511474;28;20696;-71
2022/08/04 01:19:54;;;;;;;0.50;0.50;;;;;;;;;;10534731;28;20288;-71
2022/08/04 01:25:14;;;;;;;0.63;0.63;;;;;;;;;;10501264;28;20241;-71
2022/08/04 01:30:20;;;;;;;0.88;0.88;;;;;;;;;;10516565;28;20585;-71
2022/08/04 01:35:29;;;;;;;0.63;0.63;;;;;;;;;;10479233;28;20165;-71
2022/08/04 01:40:31;;;;;;;0.80;0.80;;;;;;;;;;10512286;28;20251;-70
2022/08/04 01:45:33;;;;;;;0.60;0.60;;;;;;;;;;10502181;28;20177;-71
2022/08/04 01:50:35;;;;;;;0.60;0.60;;;;;;;;;;10492896;28;20222;-70
2022/08/04 01:55:36;;;;;;;0.70;0.70;;;;;;;;;;10526016;28;20258;-70
2022/08/04 02:00:41;;;;;;;0.80;0.80;;;;;;;;;;10526005;28;20673;-71
2022/08/04 02:05:47;;;;;;;0.70;0.70;;;;;;;;;;10521574;28;20667;-71
2022/08/04 02:11:06;;;;;;;0.88;0.88;;;;;;;;;;10538727;28;20225;-71
2022/08/04 02:16:13;;;;;;;0.70;0.70;;;;;;;;;;10529158;28;20184;-71
2022/08/04 02:21:16;;;;;;;0.80;0.80;;;;;;;;;;10515217;28;20308;-71
2022/08/04 02:26:19;;;;;;;0.70;0.70;;;;;;;;;;10529477;28;20220;-70
2022/08/04 02:31:20;;;;;;;0.60;0.60;;;;;;;;;;10463524;28;20229;-71
2022/08/04 02:36:23;;;;;;;0.90;0.90;;;;;;;;;;10513503;28;20192;-70
2022/08/04 02:41:25;;;;;;;0.60;0.60;;;;;;;;;;10530927;28;20782;-71
2022/08/04 02:46:27;;;;;;;0.90;0.90;;;;;;;;;;10493003;28;20185;-71
2022/08/04 02:51:29;;;;;;;0.80;0.80;;;;;;;;;;10527296;28;20221;-71
2022/08/04 02:56:31;;;;;;;1.00;1.00;;;;;;;;;;10536293;28;20181;-70
2022/08/04 03:01:33;;;;;;;0.95;0.95;;;;;;;;;;10533199;28;20214;-71
2022/08/04 03:06:34;;;;;;;1.38;1.27;;;;;;;;;;10505600;28;20234;-70
2022/08/04 03:11:35;;;;;;;0.90;0.90;;;;;;;;;;10533743;28;20312;-71
2022/08/04 03:16:56;;;;;;;1.10;1.10;;;;;;;;;;10530902;28;20212;-70
2022/08/04 03:22:00;;;;;;;0.90;0.90;;;;;;;;;;10536165;28;20233;-71
2022/08/04 03:27:07;;;;;;;1.38;0.90;;;;;;;;;;10533148;28;20196;-71
2022/08/04 03:32:26;;;;;;;0.90;0.90;;;;;;;;;;10529405;28;20219;-71
2022/08/04 03:37:46;;;;;;;0.80;0.80;;;;;;;;;;10498328;28;20189;-71
2022/08/04 03:43:00;;;;;;;0.85;0.85;;;;;;;;;;10528560;28;20208;-71
2022/08/04 03:48:22;;;;;;;0.70;0.70;;;;;;;;;;10511243;28;20333;-71
2022/08/04 03:53:41;;;;;;;0.80;0.80;;;;;;;;;;10539628;28;20216;-69
2022/08/04 03:58:43;;;;;;;0.93;0.93;;;;;;;;;;10531286;28;20197;-71
2022/08/04 04:04:02;;;;;;;0.77;0.77;;;;;;;;;;10517231;28;20352;-71
2022/08/04 04:09:04;;;;;;;1.08;1.08;;;;;;;;;;10534195;28;20209;-70
2022/08/04 04:14:05;;;;;;;0.98;0.98;;;;;;;;;;10513339;28;20214;-71
2022/08/04 04:19:28;;;;;;;1.23;1.23;;;;;;;;;;10503977;28;20594;-71
2022/08/04 04:24:38;;;;;;;1.27;1.27;;;;;;;;;;10491864;28;20221;-71
2022/08/04 04:29:42;;;;;;;1.02;1.02;;;;;;;;;;10467527;28;20252;-71
2022/08/04 04:34:53;;;;;;;0.90;0.90;;;;;;;;;;10491147;28;20217;-71
2022/08/04 04:40:03;;;;;;;1.20;1.20;;;;;;;;;;10497149;28;20196;-81
2022/08/04 04:45:23;;;;;;;1.30;1.20;;;;;;;;;;10489159;28;20221;-77
2022/08/04 04:50:42;;;;;;;1.63;1.52;;;;;;;;;;10488089;28;20218;-77
2022/08/04 04:55:46;;;;;;;1.10;1.10;;;;;;;;;;10478145;28;20273;-77
2022/08/04 05:00:51;;;;;;;1.50;1.50;;;;;;;;;;10490749;28;20218;-77
2022/08/04 05:05:58;;;;;;;1.05;1.05;;;;;;;;;;10459778;28;20171;-77
2022/08/04 05:11:18;;;;;;;1.30;1.30;;;;;;;;;;10462066;28;20232;-77
2022/08/04 05:16:31;;;;;;;1.30;1.30;;;;;;;;;;10468502;28;20217;-77
2022/08/04 05:21:39;;;;;;;1.63;1.58;;;;;;;;;;10458408;28;20256;-77
2022/08/04 05:26:45;;;;;;;1.45;1.45;;;;;;;;;;10530524;28;20251;-77
2022/08/04 05:31:49;;;;;;;1.40;1.40;;;;;;;;;;10503079;28;20229;-77
2022/08/04 05:36:51;;;;;;;1.52;1.48;;;;;;;;;;10507567;28;20298;-76
2022/08/04 05:41:52;;;;;;;1.27;1.27;;;;;;;;;;10525866;28;20210;-75
2022/08/04 05:46:57;;;;;;;1.42;1.40;;;;;;;;;;10520024;28;20190;-72
2022/08/04 05:52:00;;;;;;;1.40;1.40;;;;;;;;;;10523908;28;20236;-69
2022/08/04 05:57:03;;;;;;;1.48;1.38;;;;;;;;;;10523401;28;20185;-68
2022/08/04 06:02:05;;;;;;;1.70;1.58;;;;;;;;;;10531430;28;20296;-71
2022/08/04 06:07:07;;;;;;;1.25;1.25;;;;;;;;;;10501322;28;20939;-74
2022/08/04 06:12:13;;;;;;;1.65;1.65;;;;;;;;;;10504605;28;20600;-73
2022/08/04 06:17:21;;;;;;;1.27;1.27;;;;;;;;;;10541552;28;20727;-73
2022/08/04 06:22:23;;;;;;;1.38;1.38;;;;;;;;;;10529558;28;20332;-73
2022/08/04 06:27:25;;;;;;;1.10;1.10;;;;;;;;;;10498682;28;20753;-72
2022/08/04 06:32:35;;;;;;;1.10;1.10;;;;;;;;;;10524075;28;20360;-72
2022/08/04 06:37:37;;;;;;;1.52;1.48;;;;;;;;;;10526419;28;20182;-72
2022/08/04 06:42:38;;;;;;;1.20;1.08;;;;;;;;;;10523531;28;22156;-72
2022/08/04 06:47:40;;;;;;;1.40;1.40;;;;;;;;;;10529534;28;20227;-72
2022/08/04 06:52:43;;;;;;;1.08;1.08;;;;;;;;;;10536444;28;20221;-73
2022/08/04 06:57:45;;;;;;;1.25;1.25;;;;;;;;;;10535503;28;20571;-73
2022/08/04 07:02:52;;;;;;;1.30;1.30;;;;;;;;;;10516995;28;20788;-72
2022/08/04 07:07:53;;;;;;;1.35;1.35;;;;;;;;;;10516573;28;20213;-73
2022/08/04 07:12:56;;;;;;;1.00;1.00;;;;;;;;;;10513675;28;20209;-73
2022/08/04 07:17:58;;;;;;;1.10;1.10;;;;;;;;;;10515734;28;20211;-73
2022/08/04 07:23:00;;;;;;;1.10;1.10;;;;;;;;;;10498966;28;20230;-73
2022/08/04 07:28:02;;;;;;;1.20;1.05;;;;;;;;;;10520939;28;20209;-73
2022/08/04 07:33:05;;;;;;;2.75;1.10;;;;;;;;;;10522879;28;20205;-73
2022/08/04 07:38:06;;;;;;;1.27;1.10;;;;;;;;;;10524492;28;20208;-73
2022/08/04 07:43:08;;;;;;;1.27;0.93;;;;;;;;;;10500716;28;20210;-72
2022/08/04 07:48:10;;;;;;;0.88;0.88;;;;;;;;;;10522742;28;20202;-73
2022/08/04 07:53:12;;;;;;;0.60;0.60;;;;;;;;;;10519505;28;20209;-73
2022/08/04 07:58:13;;;;;;;0.90;0.90;;;;;;;;;;10527832;28;20194;-74
2022/08/04 08:03:15;;;;;;;1.00;1.00;;;;;;;;;;10525889;28;20300;-74
2022/08/04 08:08:16;;;;;;;0.90;0.90;;;;;;;;;;10528939;28;20870;-73
2022/08/04 08:13:17;;;;;;;0.98;0.98;;;;;;;;;;10523914;28;20233;-73
2022/08/04 08:18:18;;;;;;;0.70;0.70;;;;;;;;;;10529804;28;20213;-73
2022/08/04 08:23:19;;;;;;;0.80;0.80;;;;;;;;;;10521543;28;20316;-73
2022/08/04 08:28:21;;;;;;;0.82;0.82;;;;;;;;;;10526490;28;20217;-74
2022/08/04 08:33:23;;;;;;;0.70;0.70;;;;;;;;;;10497464;28;20761;-74
2022/08/04 08:38:38;;;;;;;0.80;0.80;;;;;;;;;;10494546;28;20196;-74
2022/08/04 08:43:45;;;;;;;0.75;0.75;;;;;;;;;;10492021;28;20217;-74
2022/08/04 08:48:52;;;;;;;0.65;0.65;;;;;;;;;;10512919;28;20209;-74
2022/08/04 08:54:08;;;;;;;0.63;0.63;;;;;;;;;;10520382;28;20209;-74
2022/08/04 08:59:28;;;;;;;0.85;0.70;;;;;;;;;;10518673;28;20207;-74
2022/08/04 09:04:29;;;;;;;0.60;0.60;;;;;;;;;;10514378;28;20628;-74
2022/08/04 09:09:38;;;;;;;1.50;1.50;;;;;;;;;;10498376;28;20258;-74
2022/08/04 09:14:44;;;;;;;1.35;1.35;;;;;;;;;;10527146;28;20228;-75
2022/08/04 09:19:51;;;;;;;2.35;2.25;;;;;;;;;;10531123;28;20201;-75
2022/08/04 09:24:57;;;;;;;5.18;4.97;;;;;;;;;;10525483;28;21026;-72
2022/08/04 09:30:02;;;;;;;2.45;2.42;;;;;;;;;;10493117;28;20246;-73
2022/08/04 09:35:18;;;;;;;3.03;2.92;;;;;;;;;;10477484;28;20206;-73
2022/08/04 09:40:24;;;;;;;5.07;4.97;;;;;;;;;;10501699;28;20187;-73
2022/08/04 09:45:28;;;;;;;1.92;1.92;;;;;;;;;;10489959;28;20219;-73
2022/08/04 09:50:38;;;;;;;4.15;4.05;;;;;;;;;;10517173;28;21094;-73
2022/08/04 09:55:45;;;;;;;2.42;2.42;;;;;;;;;;10504495;28;20604;-73
2022/08/04 10:00:47;;;;;;;2.92;2.92;;;;;;;;;;10525540;28;20668;-73
2022/08/04 10:05:56;;;;;;;2.42;2.42;;;;;;;;;;10531638;28;20189;-73
2022/08/04 10:11:17;;;;;;;1.52;1.52;;;;;;;;;;10525692;28;20228;-73
2022/08/04 10:16:32;;;;;;;2.58;2.55;;;;;;;;;;10521228;28;20193;-72
2022/08/04 10:22:00;;;;;;;2.28;2.28;;;;;;;;;;10527869;28;20239;-72
2022/08/04 10:27:01;;;;;;;1.40;1.40;;;;;;;;;;10494237;28;20181;-73
2022/08/04 10:32:21;;;;;;;1.40;1.40;;;;;;;;;;10520444;28;20228;-72
2022/08/04 10:37:24;;;;;;;0.65;0.65;;;;;;;;;;10505482;28;20552;-74
2022/08/04 10:42:29;;;;;;;1.17;1.17;;;;;;;;;;10530433;28;20592;-73
2022/08/04 10:47:33;;;;;;;0.70;0.70;;;;;;;;;;10525442;28;20205;-74
2022/08/04 10:52:42;;;;;;;0.70;0.70;;;;;;;;;;10524443;28;20205;-73
2022/08/04 10:57:51;;;;;;;0.98;0.98;;;;;;;;;;10494377;28;20203;-73
2022/08/04 11:02:58;;;;;;;0.77;0.77;;;;;;;;;;10519985;28;20760;-73
2022/08/04 11:08:02;;;;;;;0.63;0.63;;;;;;;;;;10504191;28;20205;-73
2022/08/04 11:13:06;;;;;;;0.55;0.55;;;;;;;;;;10517118;28;20295;-75
2022/08/04 11:18:13;;;;;;;0.57;0.57;;;;;;;;;;10524941;28;20774;-73
2022/08/04 11:23:16;;;;;;;0.60;0.60;;;;;;;;;;10531388;28;20236;-74
2022/08/04 11:28:28;;;;;;;0.50;0.50;;;;;;;;;;10530536;28;20209;-71
2022/08/04 11:33:29;;;;;;;0.50;0.50;;;;;;;;;;10531630;28;20577;-73
2022/08/04 11:38:55;;;;;;;0.60;0.60;;;;;;;;;;10525002;28;20185;-72
2022/08/04 11:44:41;;;;;;;0.70;0.70;;;;;;;;;;10527601;28;20679;-72
2022/08/04 11:50:07;;;;;;;0.80;0.80;;;;;;;;;;10522559;28;20213;-73
2022/08/04 11:55:34;;;;;;;0.60;0.60;;;;;;;;;;10510485;28;20208;-72
2022/08/04 12:01:00;;;;;;;0.50;0.50;;;;;;;;;;10504770;28;20205;-72
2022/08/04 12:06:30;;;;;;;0.60;0.60;;;;;;;;;;10517876;28;20177;-74
2022/08/04 12:12:02;;;;;;;0.50;0.50;;;;;;;;;;10477725;28;20221;-74
2022/08/04 12:17:39;;;;;;;0.60;0.60;;;;;;;;;;10501310;28;20221;-73
2022/08/04 17:49:18;;;;;;;0.65;0.65;;;;;;;;;;10510355;27;20225;-72
2022/08/04 17:54:21;;;;;;;0.60;0.60;;;;;;;;;;10519310;28;20204;-67
2022/08/04 17:59:26;;;;;;;0.50;0.50;;;;;;;;;;10540079;28;20212;-70
2022/08/04 18:04:35;;;;;;;0.50;0.50;;;;;;;;;;10525402;28;20209;-72
2022/08/04 18:09:41;;;;;;;0.47;0.47;;;;;;;;;;10532693;28;20213;-73
2022/08/04 18:14:46;;;;;;;0.60;0.60;;;;;;;;;;10532571;28;20216;-71
2022/08/04 18:19:54;;;;;;;0.82;0.82;;;;;;;;;;10537935;28;20729;-72
2022/08/04 18:24:55;;;;;;;0.60;0.60;;;;;;;;;;10529175;28;20213;-72
2022/08/04 18:29:56;;;;;;;0.60;0.60;;;;;;;;;;10514974;28;20193;-74
2022/08/04 18:34:57;;;;;;;0.70;0.70;;;;;;;;;;10519678;28;20683;-76
2022/08/04 18:39:58;;;;;;;2.05;0.80;;;;;;;;;;10533290;28;20282;-75
2022/08/04 18:44:59;;;;;;;0.60;0.60;;;;;;;;;;10529203;28;20574;-74
2022/08/04 18:50:00;;;;;;;0.63;0.63;;;;;;;;;;10524711;28;20901;-74
2022/08/04 18:55:02;;;;;;;0.70;0.70;;;;;;;;;;10497428;28;21150;-70
2022/08/04 19:00:03;;;;;;;0.60;0.60;;;;;;;;;;10524636;28;20200;-70
2022/08/04 19:05:05;;;;;;;0.60;0.60;;;;;;;;;;10488994;28;20221;-71
2022/08/04 19:10:06;;;;;;;0.50;0.50;;;;;;;;;;10533153;28;20220;-74
2022/08/04 19:15:08;;;;;;;0.45;0.45;;;;;;;;;;10506853;28;20743;-72
2022/08/04 19:20:09;;;;;;;0.50;0.50;;;;;;;;;;10531090;28;20205;-73
2022/08/04 19:25:10;;;;;;;0.40;0.40;;;;;;;;;;10539730;28;20238;-72
2022/08/04 19:30:11;;;;;;;0.52;0.52;;;;;;;;;;10521843;28;20202;-70
2022/08/04 19:35:12;;;;;;;0.50;0.50;;;;;;;;;;10536877;28;20420;-70
2022/08/04 19:40:13;;;;;;;0.40;0.40;;;;;;;;;;10535568;28;20173;-69
2022/08/04 19:45:14;;;;;;;0.50;0.50;;;;;;;;;;10526129;28;20208;-73
2022/08/04 19:50:16;;;;;;;0.50;0.50;;;;;;;;;;10537579;28;20871;-73
2022/08/04 19:55:17;;;;;;;0.55;0.55;;;;;;;;;;10512955;28;21044;-73
2022/08/04 20:00:19;;;;;;;0.50;0.50;;;;;;;;;;10523165;28;20184;-73
2022/08/04 20:05:20;;;;;;;0.57;0.57;;;;;;;;;;10553452;27;20188;-73
2022/08/04 20:10:21;;;;;;;0.40;0.40;;;;;;;;;;10537237;28;20201;-72
2022/08/04 20:15:22;;;;;;;0.60;0.60;;;;;;;;;;10539197;28;20189;-73
2022/08/04 20:20:23;;;;;;;0.50;0.50;;;;;;;;;;10536671;28;20197;-73
2022/08/04 20:25:24;;;;;;;0.60;0.60;;;;;;;;;;10532562;28;20553;-73
2022/08/04 20:30:26;;;;;;;0.60;0.60;;;;;;;;;;10535955;28;21021;-73
2022/08/04 20:35:27;;;;;;;0.60;0.60;;;;;;;;;;10536758;28;20610;-73
2022/08/04 20:40:29;;;;;;;0.60;0.60;;;;;;;;;;10510140;28;20766;-72
2022/08/04 20:45:30;;;;;;;0.50;0.50;;;;;;;;;;10534906;28;20194;-73
2022/08/04 20:50:31;;;;;;;0.63;0.63;;;;;;;;;;10530786;28;20263;-73
2022/08/04 20:55:32;;;;;;;0.77;0.77;;;;;;;;;;10526538;28;20178;-73
2022/08/04 21:00:33;;;;;;;1.27;0.70;;;;;;;;;;10524938;28;20213;-73
2022/08/04 21:05:34;;;;;;;0.70;0.70;;;;;;;;;;10511118;28;20591;-73
2022/08/04 21:10:36;;;;;;;0.40;0.40;;;;;;;;;;10529633;28;20221;-73
2022/08/04 21:15:37;;;;;;;0.80;0.80;;;;;;;;;;10527971;28;20312;-73
2022/08/04 21:20:38;;;;;;;0.70;0.70;;;;;;;;;;10532463;28;20221;-72
2022/08/04 21:25:39;;;;;;;0.57;0.57;;;;;;;;;;10526452;28;20185;-73
2022/08/04 21:30:40;;;;;;;0.60;0.60;;;;;;;;;;10515279;28;20236;-73
2022/08/04 21:35:42;;;;;;;0.77;0.77;;;;;;;;;;10524742;28;20184;-73
2022/08/04 21:40:49;;;;;;;0.57;0.57;;;;;;;;;;10501092;28;20227;-72
2022/08/04 21:45:51;;;;;;;0.77;0.77;;;;;;;;;;10521847;28;20173;-73
2022/08/04 21:50:52;;;;;;;0.70;0.70;;;;;;;;;;10510010;28;20237;-73
2022/08/04 21:55:53;;;;;;;0.80;0.80;;;;;;;;;;10529972;28;20182;-73
2022/08/04 22:00:54;;;;;;;0.88;0.88;;;;;;;;;;10516798;28;20220;-73
2022/08/04 22:05:55;;;;;;;0.60;0.60;;;;;;;;;;10521532;28;20232;-73
2022/08/04 22:10:57;;;;;;;0.60;0.60;;;;;;;;;;10520590;28;20228;-74
2022/08/04 22:15:58;;;;;;;0.75;0.75;;;;;;;;;;10523235;28;21102;-73
2022/08/04 22:20:59;;;;;;;0.55;0.55;;;;;;;;;;10531700;28;20309;-74
2022/08/04 22:26:00;;;;;;;0.63;0.63;;;;;;;;;;10499311;28;20215;-73
2022/08/04 22:31:01;;;;;;;0.80;0.80;;;;;;;;;;10530492;28;20228;-73
2022/08/04 22:36:02;;;;;;;0.70;0.70;;;;;;;;;;10508066;28;20188;-74
2022/08/04 22:41:09;;;;;;;0.88;0.60;;;;;;;;;;10502275;28;20205;-75
2022/08/04 22:46:20;;;;;;;1.08;1.08;;;;;;;;;;10526444;28;20235;-75
2022/08/04 22:51:23;;;;;;;0.52;0.52;;;;;;;;;;10488729;28;20696;-76
2022/08/04 22:56:24;;;;;;;0.50;0.50;;;;;;;;;;10534283;27;20228;-75
2022/08/04 23:01:25;;;;;;;0.80;0.80;;;;;;;;;;10531976;28;20620;-74
2022/08/04 23:06:26;;;;;;;0.57;0.57;;;;;;;;;;10541112;28;20372;-73
2022/08/04 23:11:27;;;;;;;0.80;0.70;;;;;;;;;;10535531;27;20218;-74
2022/08/04 23:16:28;;;;;;;0.80;0.80;;;;;;;;;;10533569;28;20185;-74
2022/08/04 23:21:29;;;;;;;0.50;0.50;;;;;;;;;;10512624;27;20240;-74
2022/08/04 23:26:30;;;;;;;0.60;0.60;;;;;;;;;;10534882;28;20185;-73
2022/08/04 23:31:32;;;;;;;0.60;0.60;;;;;;;;;;10537616;28;20229;-73
2022/08/04 23:36:33;;;;;;;0.70;0.70;;;;;;;;;;10533891;28;20181;-73
2022/08/04 23:41:34;;;;;;;0.52;0.52;;;;;;;;;;10528459;27;20284;-75
2022/08/04 23:46:37;;;;;;;0.52;0.52;;;;;;;;;;10534843;28;20187;-73
2022/08/04 23:51:38;;;;;;;0.60;0.60;;;;;;;;;;10511927;28;20293;-74
2022/08/04 23:56:41;;;;;;;0.50;0.50;;;;;;;;;;10538715;28;20180;-75
